Latest Weather Observations for Creal Reef

IDQ60801

Issued at 8:02 pm EST Thursday 28 July 2016 (issued every 30 minutes, with the page automatically refreshed every 10 minutes)

About weather observations | Map of weather stations | Latest weather observations for QLD | Other Formats
Station Details ID: 200736 Name: CREAL REEF Lat: -20.53 Lon: 150.38 Height: 1.7 m
Data from the previous 72 hours. | See also: Recent months for locations in Queensland
Date/Time
EST
Temp
°C
App
Temp
°C
Dew
Point
°C
Rel
Hum
%
Delta-T
°C
Wind Press
QNH
hPa
Press
MSL
hPa
Rain since
9am
mm
Dir  Spd
km/h
Gust
km/h
Spd
kts
Gust
kts
28/08:00pm 20.5 - - - - SSE 39 48 21 26 - - -
28/07:30pm 20.3 - - - - SSE 37 44 20 24 - - -
28/07:20pm 20.2 - - - - SSE 39 - 21 - - - -
28/07:00pm 20.4 - - - - SSE 39 52 21 28 - - -
28/06:30pm 20.3 - - - - SSE 41 50 22 27 - - -
28/06:20pm 20.3 - - - - S 44 - 24 - - - -
28/06:00pm 20.4 - - - - SSE 37 50 20 27 - - -
28/05:30pm 20.3 - - - - S 43 52 23 28 - - -
28/05:20pm 20.4 - - - - SSE 43 - 23 - - - -
28/05:00pm 20.5 - - - - S 44 54 24 29 - - -
28/04:30pm 20.7 - - - - SSE 41 50 22 27 - - -
28/04:20pm 20.6 - - - - S 44 - 24 - - - -
28/04:00pm 20.8 - - - - SSE 43 54 23 29 - - -
28/03:40pm 20.8 - - - - SSE 39 57 21 31 - - -
28/03:30pm 21.1 - - - - SSE 41 56 22 30 - - -
28/03:20pm 21.0 - - - - SSE 41 - 22 - - - -
28/03:00pm 21.1 - - - - SSE 44 52 24 28 - - -
28/02:30pm 21.1 - - - - SSE 43 52 23 28 - - -
28/02:20pm 21.2 - - - - SSE 43 - 23 - - - -
28/02:00pm 21.3 - - - - SSE 41 52 22 28 - - -
28/01:30pm 21.3 - - - - S 44 57 24 31 - - -
28/01:20pm 21.3 - - - - SSE 44 - 24 - - - -
28/01:00pm 21.5 - - - - SSE 41 54 22 29 - - -
28/12:30pm 21.5 - - - - SSE 41 52 22 28 - - -
28/12:20pm 21.5 - - - - SSE 43 - 23 - - - -
28/12:00pm 21.6 - - - - SSE 41 48 22 26 - - -
28/11:30am 21.7 - - - - SSE 39 54 21 29 - - -
28/11:20am 21.9 - - - - SSE 41 - 22 - - - -
28/11:00am 22.0 - - - - SSE 41 54 22 29 - - -
28/10:30am 21.9 - - - - SSE 41 50 22 27 - - -
28/09:30am 22.0 - - - - SSE 44 52 24 28 - - -
28/09:20am 22.0 - - - - SSE 44 - 24 - - - -
28/09:00am 22.3 - - - - SSE 39 46 21 25 - - -
28/08:00am 22.4 - - - - SSE 41 50 22 27 - - -
28/07:30am 22.3 - - - - SSE 35 43 19 23 - - -
28/07:20am 22.0 - - - - SSE 35 - 19 - - - -
28/07:00am 21.8 - - - - SSE 35 43 19 23 - - -
28/06:30am 21.7 - - - - SSE 39 46 21 25 - - -
28/06:20am 21.9 - - - - S 39 - 21 - - - -
28/06:00am 21.9 - - - - S 39 46 21 25 - - -
28/05:30am 22.0 - - - - S 41 46 22 25 - - -
28/05:20am 22.0 - - - - S 41 - 22 - - - -
28/05:00am 22.4 - - - - S 43 50 23 27 - - -
28/04:30am 22.2 - - - - S 43 50 23 27 - - -
28/04:20am 22.1 - - - - S 44 - 24 - - - -
28/04:00am 22.1 - - - - S 46 54 25 29 - - -
28/03:30am 22.4 - - - - S 46 54 25 29 - - -
28/03:20am 22.5 - - - - S 46 - 25 - - - -
28/03:00am 22.6 - - - - S 43 48 23 26 - - -
28/02:30am 22.8 - - - - S 41 48 22 26 - - -
28/02:20am 22.7 - - - - S 41 - 22 - - - -
28/02:00am 22.8 - - - - S 39 46 21 25 - - -
28/01:30am 22.9 - - - - S 39 46 21 25 - - -
28/01:20am 22.9 - - - - S 37 - 20 - - - -
28/01:00am 22.9 - - - - S 37 43 20 23 - - -
28/12:30am 23.0 - - - - S 39 43 21 23 - - -
28/12:20am 23.1 - - - - SSE 37 - 20 - - - -
28/12:00am 23.3 - - - - SSE 33 41 18 22 - - -
 
Date/Time
EST
Temp
°C
App
Temp
°C
Dew
Point
°C
Rel
Hum
%
Delta-T
°C
Wind Press
QNH
hPa
Press
MSL
hPa
Rain since
9am
mm
Dir  Spd
km/h
Gust
km/h
Spd
kts
Gust
kts
27/11:30pm 23.3 - - - - SSE 26 33 14 18 - - -
27/11:20pm 23.3 - - - - SSE 30 - 16 - - - -
27/11:00pm 23.5 - - - - SSE 32 35 17 19 - - -
27/10:30pm 23.5 - - - - SSE 32 35 17 19 - - -
27/10:20pm 23.5 - - - - SSE 32 - 17 - - - -
27/10:00pm 23.4 - - - - SSE 30 35 16 19 - - -
27/09:30pm 23.3 - - - - SSE 30 35 16 19 - - -
27/09:20pm 23.4 - - - - SSE 28 - 15 - - - -
27/09:00pm 23.2 - - - - SSE 32 35 17 19 - - -
27/08:30pm 23.1 - - - - SSE 30 35 16 19 - - -
27/08:20pm 23.1 - - - - SSE 30 - 16 - - - -
27/08:00pm 23.1 - - - - SSE 28 35 15 19 - - -
27/07:30pm 23.0 - - - - SSE 28 35 15 19 - - -
27/07:20pm 23.1 - - - - SSE 28 - 15 - - - -
27/07:00pm 23.0 - - - - SSE 30 37 16 20 - - -
27/06:30pm 22.8 - - - - SSE 32 37 17 20 - - -
27/06:20pm 22.8 - - - - S 33 - 18 - - - -
27/06:00pm 22.9 - - - - SSE 33 41 18 22 - - -
27/05:30pm 22.9 - - - - S 32 35 17 19 - - -
27/05:20pm 22.9 - - - - S 32 - 17 - - - -
27/05:00pm 23.1 - - - - S 32 35 17 19 - - -
27/04:30pm 23.0 - - - - S 30 35 16 19 - - -
27/04:20pm 23.0 - - - - S 30 - 16 - - - -
27/04:00pm 23.1 - - - - S 32 37 17 20 - - -
27/03:30pm 23.1 - - - - SSE 30 35 16 19 - - -
27/03:20pm 23.1 - - - - SSE 24 - 13 - - - -
27/03:00pm 23.2 - - - - SSE 24 32 13 17 - - -
27/02:30pm 23.1 - - - - S 26 32 14 17 - - -
27/02:20pm 23.2 - - - - SSE 24 - 13 - - - -
27/02:00pm 23.2 - - - - S 26 30 14 16 - - -
27/01:30pm 23.2 - - - - S 28 32 15 17 - - -
27/01:20pm 23.4 - - - - S 28 - 15 - - - -
27/01:00pm 23.3 - - - - S 28 30 15 16 - - -
27/12:30pm 23.5 - - - - SSE 22 28 12 15 - - -
27/12:20pm 23.4 - - - - SSE 24 - 13 - - - -
27/12:00pm 23.5 - - - - S 26 30 14 16 - - -
27/11:30am 23.6 - - - - SSE 24 28 13 15 - - -
27/11:00am 23.3 - - - - SSE 26 28 14 15 - - -
27/10:30am 23.3 - - - - S 28 32 15 17 - - -
27/10:20am 23.3 - - - - SSE 30 - 16 - - - -
27/10:00am 23.3 - - - - SSE 26 33 14 18 - - -
27/09:30am 23.2 - - - - SSE 28 33 15 18 - - -
27/09:20am 23.3 - - - - SSE 26 - 14 - - - -
27/09:00am 23.3 - - - - S 30 35 16 19 - - -
27/08:30am 23.3 - - - - S 30 33 16 18 - - -
27/08:00am 23.3 - - - - SSE 26 32 14 17 - - -
27/07:30am 23.3 - - - - SSE 28 33 15 18 - - -
27/07:20am 23.2 - - - - SSE 28 - 15 - - - -
27/07:00am 23.1 - - - - SSE 26 32 14 17 - - -
27/06:30am 23.1 - - - - SSE 26 30 14 16 - - -
27/06:20am 23.0 - - - - SSE 26 - 14 - - - -
27/06:00am 23.1 - - - - SSE 28 30 15 16 - - -
27/05:30am 23.0 - - - - SSE 26 32 14 17 - - -
27/05:20am 22.9 - - - - SSE 26 - 14 - - - -
27/05:00am 23.2 - - - - S 30 33 16 18 - - -
27/04:30am 23.1 - - - - S 28 33 15 18 - - -
27/04:20am 23.1 - - - - S 28 - 15 - - - -
27/04:00am 23.1 - - - - SSE 26 32 14 17 - - -
27/03:30am 23.2 - - - - S 28 32 15 17 - - -
27/03:20am 23.2 - - - - SSE 24 - 13 - - - -
27/03:00am 23.1 - - - - SSE 22 26 12 14 - - -
27/02:30am 23.0 - - - - SSE 22 26 12 14 - - -
27/02:20am 23.0 - - - - SE 22 - 12 - - - -
27/02:00am 23.1 - - - - SE 24 30 13 16 - - -
27/01:30am 23.0 - - - - SE 24 28 13 15 - - -
27/01:20am 23.1 - - - - SE 24 - 13 - - - -
27/01:00am 23.0 - - - - SE 24 28 13 15 - - -
27/12:30am 23.0 - - - - SE 26 30 14 16 - - -
27/12:20am 23.0 - - - - SE 26 - 14 - - - -
27/12:00am 23.1 - - - - SE 26 30 14 16 - - -
 
Date/Time
EST
Temp
°C
App
Temp
°C
Dew
Point
°C
Rel
Hum
%
Delta-T
°C
Wind Press
QNH
hPa
Press
MSL
hPa
Rain since
9am
mm
Dir  Spd
km/h
Gust
km/h
Spd
kts
Gust
kts
26/11:30pm 22.9 - - - - SSE 26 32 14 17 - - -
26/11:20pm 23.0 - - - - SSE 26 - 14 - - - -
26/11:00pm 22.8 - - - - SSE 24 30 13 16 - - -
26/10:30pm 22.8 - - - - SSE 24 32 13 17 - - -
26/10:20pm 22.8 - - - - SSE 26 - 14 - - - -
26/10:00pm 22.8 - - - - SSE 26 33 14 18 - - -
26/09:30pm 22.9 - - - - SSE 26 32 14 17 - - -
26/09:20pm 22.8 - - - - SSE 28 - 15 - - - -
26/09:00pm 22.9 - - - - SSE 30 35 16 19 - - -
26/08:30pm 22.8 - - - - SSE 28 35 15 19 - - -
26/08:20pm 22.8 - - - - SSE 30 - 16 - - - -
26/08:00pm 22.9 - - - - SSE 30 37 16 20 - - -
26/07:30pm 22.9 - - - - SSE 33 39 18 21 - - -
26/07:20pm 22.9 - - - - SSE 32 - 17 - - - -
26/07:00pm 22.9 - - - - SSE 32 37 17 20 - - -
26/06:30pm 23.0 - - - - SSE 33 39 18 21 - - -
26/06:20pm 23.0 - - - - S 32 - 17 - - - -
26/06:00pm 23.0 - - - - S 30 35 16 19 - - -
26/05:30pm 23.1 - - - - SSE 26 32 14 17 - - -
26/05:20pm 23.2 - - - - SSE 26 - 14 - - - -
26/05:00pm 23.2 - - - - SSE 26 30 14 16 - - -
26/04:30pm 23.3 - - - - SSE 26 32 14 17 - - -
26/04:20pm 23.3 - - - - SSE 24 - 13 - - - -
26/04:00pm 23.4 - - - - SSE 24 30 13 16 - - -
26/03:30pm 23.4 - - - - SSE 22 28 12 15 - - -
26/03:20pm 23.6 - - - - SSE 22 - 12 - - - -
26/03:00pm 23.7 - - - - SSE 20 24 11 13 - - -
26/02:30pm 23.5 - - - - SSE 20 26 11 14 - - -
26/02:20pm 23.6 - - - - SSE 20 - 11 - - - -
26/02:00pm 23.4 - - - - SSE 22 26 12 14 - - -
26/01:30pm 23.4 - - - - SSE 22 26 12 14 - - -
26/01:20pm 23.5 - - - - SSE 20 - 11 - - - -
26/01:00pm 23.5 - - - - SE 19 24 10 13 - - -
26/12:30pm 23.5 - - - - SSE 20 24 11 13 - - -
26/12:20pm 23.4 - - - - SSE 22 - 12 - - - -
26/12:00pm 23.4 - - - - SSE 20 26 11 14 - - -
26/11:30am 23.4 - - - - SSE 20 26 11 14 - - -
26/11:20am 23.6 - - - - SSE 19 - 10 - - - -
26/11:00am 23.5 - - - - SSE 20 24 11 13 - - -
26/10:30am 23.5 - - - - SSE 22 28 12 15 - - -
26/10:20am 23.5 - - - - SSE 22 - 12 - - - -
26/10:00am 23.5 - - - - SSE 22 28 12 15 - - -
26/09:20am 23.4 - - - - SSE 24 - 13 - - - -
26/09:00am 23.4 - - - - SSE 24 28 13 15 - - -
26/08:30am 23.3 - - - - SSE 24 28 13 15 - - -
26/08:00am 23.5 - - - - SSE 22 26 12 14 - - -
26/07:30am 23.3 - - - - SE 24 28 13 15 - - -
26/07:20am 23.3 - - - - SE 24 - 13 - - - -
26/07:00am 23.2 - - - - SE 24 26 13 14 - - -
26/06:30am 23.1 - - - - SE 24 28 13 15 - - -

Other Formats:

Comma delimited format used in spreadsheet applications
http://www.bom.gov.au/fwo/IDQ60801/IDQ60801.94371.axf

JavaScript Object Notation format (JSON) in row-major order
http://www.bom.gov.au/fwo/IDQ60801/IDQ60801.94371.json